createdAt,value
2024-03-02T00:00:28.431Z,9.75
2024-03-02T00:01:32.529Z,9.75
2024-03-02T00:02:44.004Z,9.68
2024-03-02T00:03:47.682Z,9.68
2024-03-02T00:04:51.058Z,9.63
2024-03-02T00:05:54.346Z,9.65
2024-03-02T00:06:57.700Z,9.62
2024-03-02T00:08:01.491Z,9.55
2024-03-02T00:09:05.740Z,9.56
2024-03-02T00:10:15.631Z,9.56
2024-03-02T00:11:20.211Z,9.46
2024-03-02T00:12:24.603Z,9.50
2024-03-02T00:13:28.177Z,9.52
2024-03-02T00:14:31.581Z,9.55
2024-03-02T00:15:52.903Z,9.58
2024-03-02T00:16:58.266Z,9.61
2024-03-02T00:18:02.669Z,9.60
2024-03-02T00:19:10.593Z,9.61
2024-03-02T00:20:22.987Z,9.63
2024-03-02T00:21:31.924Z,9.63
2024-03-02T00:22:38.586Z,9.61
2024-03-02T00:23:42.743Z,9.62
2024-03-02T00:24:47.295Z,9.61
2024-03-02T00:25:56.560Z,9.65
2024-03-02T00:27:00.013Z,9.68
2024-03-02T00:28:08.852Z,9.64
2024-03-02T00:29:14.744Z,9.54
2024-03-02T00:30:52.343Z,9.52
2024-03-02T00:31:58.258Z,9.45
2024-03-02T00:33:02.587Z,9.44
2024-03-02T00:34:12.846Z,9.41
2024-03-02T00:35:16.357Z,9.40
2024-03-02T00:36:26.365Z,9.40
2024-03-02T00:37:30.972Z,9.39
2024-03-02T00:38:35.837Z,9.39
2024-03-02T00:39:39.554Z,9.38
2024-03-02T00:40:46.234Z,9.38
2024-03-02T00:41:59.329Z,9.38
2024-03-02T00:43:04.739Z,9.34
2024-03-02T00:44:14.180Z,9.35
2024-03-02T00:45:18.233Z,9.32
2024-03-02T00:46:21.619Z,9.33
2024-03-02T00:47:25.590Z,9.34
2024-03-02T00:48:29.633Z,9.36
2024-03-02T00:49:32.860Z,9.28
2024-03-02T00:50:36.260Z,9.24
2024-03-02T00:51:40.878Z,9.23
2024-03-02T00:52:44.994Z,9.28
2024-03-02T00:53:49.252Z,9.26
2024-03-02T00:54:53.432Z,9.19
2024-03-02T00:55:57.078Z,9.15
2024-03-02T00:57:03.260Z,9.16
2024-03-02T00:58:06.340Z,9.14
2024-03-02T00:59:12.337Z,9.13
2024-03-02T01:00:20.145Z,9.15
2024-03-02T01:01:24.533Z,9.11
2024-03-02T01:02:33.582Z,9.04
2024-03-02T01:03:38.537Z,9.12
2024-03-02T01:04:42.761Z,9.08
2024-03-02T01:05:46.971Z,9.08
2024-03-02T01:06:50.886Z,9.10
2024-03-02T01:07:56.348Z,9.09
2024-03-02T01:09:01.848Z,9.09
2024-03-02T01:10:05.433Z,9.04
2024-03-02T01:11:09.401Z,9.08
2024-03-02T01:12:17.210Z,9.05
2024-03-02T01:13:20.266Z,9.06
2024-03-02T01:14:24.124Z,9.06
2024-03-02T01:15:27.389Z,9.11
2024-03-02T01:16:31.017Z,9.07
2024-03-02T01:17:34.381Z,9.10
2024-03-02T01:18:41.186Z,9.07
2024-03-02T01:19:45.639Z,9.09
2024-03-02T01:20:50.955Z,9.10
2024-03-02T01:21:54.356Z,9.10
2024-03-02T01:23:00.450Z,9.08
2024-03-02T01:24:04.946Z,8.95
2024-03-02T01:25:10.330Z,8.97
2024-03-02T01:26:13.994Z,8.93
2024-03-02T01:27:17.128Z,8.87
2024-03-02T01:28:23.045Z,8.88
2024-03-02T01:29:32.666Z,8.87
2024-03-02T01:30:36.402Z,8.89
2024-03-02T01:31:43.402Z,8.88
2024-03-02T01:32:46.801Z,8.88
2024-03-02T01:33:50.764Z,8.89
2024-03-02T01:34:57.547Z,8.87
2024-03-02T01:36:03.239Z,8.89
2024-03-02T01:37:06.750Z,8.92
2024-03-02T01:38:13.301Z,8.95
2024-03-02T01:39:17.155Z,8.89
2024-03-02T01:40:28.232Z,8.91
2024-03-02T01:41:33.029Z,8.92
2024-03-02T01:42:42.983Z,8.89
2024-03-02T01:43:46.396Z,8.87
2024-03-02T01:44:50.533Z,8.83
2024-03-02T01:45:56.359Z,8.79
2024-03-02T01:46:59.786Z,8.69
2024-03-02T01:48:03.042Z,8.74
2024-03-02T01:49:07.805Z,8.79
2024-03-02T01:50:14.604Z,8.78
2024-03-02T01:51:17.742Z,8.74
2024-03-02T01:52:21.723Z,8.69
2024-03-02T01:53:25.679Z,8.67
2024-03-02T01:54:28.728Z,8.70
2024-03-02T01:55:32.326Z,8.69
2024-03-02T01:56:35.561Z,8.69
2024-03-02T01:57:39.290Z,8.69
2024-03-02T01:58:44.736Z,8.65
2024-03-02T01:59:54.544Z,8.60
2024-03-02T02:01:01.853Z,8.54
2024-03-02T02:02:06.764Z,8.54
2024-03-02T02:03:13.717Z,8.54
2024-03-02T02:04:16.821Z,8.59
2024-03-02T02:05:19.925Z,8.58
2024-03-02T02:06:29.076Z,8.58
2024-03-02T02:07:34.347Z,8.56
2024-03-02T02:08:49.752Z,8.62
2024-03-02T02:09:53.199Z,8.57
2024-03-02T02:10:56.579Z,8.60
2024-03-02T02:12:00.763Z,8.60
2024-03-02T02:13:04.460Z,8.58
2024-03-02T02:14:08.514Z,8.55
2024-03-02T02:15:34.308Z,8.58
2024-03-02T02:16:38.104Z,8.55
2024-03-02T02:17:45.429Z,8.61
2024-03-02T02:18:48.638Z,8.56
2024-03-02T02:19:52.351Z,8.62
2024-03-02T02:20:55.897Z,8.64
2024-03-02T02:22:00.591Z,8.66
2024-03-02T02:23:14.173Z,8.67
2024-03-02T02:24:17.560Z,8.66
2024-03-02T02:25:20.981Z,8.64
2024-03-02T02:26:24.185Z,8.66
2024-03-02T02:27:27.595Z,8.65
2024-03-02T02:28:34.539Z,8.65
2024-03-02T02:29:38.185Z,8.63
2024-03-02T02:30:41.449Z,8.59
2024-03-02T02:31:47.331Z,8.61
2024-03-02T02:32:50.999Z,8.57
2024-03-02T02:33:54.710Z,8.57
2024-03-02T02:34:58.251Z,8.56
2024-03-02T02:36:01.545Z,8.52
2024-03-02T02:37:05.351Z,8.51
2024-03-02T02:38:08.813Z,8.53
2024-03-02T02:39:18.138Z,8.51
2024-03-02T02:40:22.977Z,8.50
2024-03-02T02:41:26.338Z,8.50
2024-03-02T02:42:30.127Z,8.46
2024-03-02T02:43:33.553Z,8.42
2024-03-02T02:44:36.805Z,8.43
2024-03-02T02:45:40.112Z,8.42
2024-03-02T02:46:45.323Z,8.42
2024-03-02T02:47:49.986Z,8.39
2024-03-02T02:48:55.566Z,8.40
2024-03-02T02:49:58.700Z,8.35
2024-03-02T02:51:04.669Z,8.37
2024-03-02T02:52:07.878Z,8.39
2024-03-02T02:53:14.150Z,8.40
2024-03-02T02:54:17.934Z,8.43
2024-03-02T02:55:21.402Z,8.42
2024-03-02T02:56:26.208Z,8.43
2024-03-02T02:57:31.503Z,8.45
2024-03-02T02:58:34.957Z,8.39
2024-03-02T02:59:39.541Z,8.36
2024-03-02T03:00:44.784Z,8.42
2024-03-02T03:01:49.628Z,8.41
2024-03-02T03:02:56.588Z,8.44
2024-03-02T03:04:02.745Z,8.49
2024-03-02T03:05:12.087Z,8.47
2024-03-02T03:06:16.820Z,8.56
2024-03-02T03:07:21.535Z,8.59
2024-03-02T03:08:26.572Z,8.59
2024-03-02T03:09:30.353Z,8.61
2024-03-02T03:10:35.744Z,8.61
2024-03-02T03:11:39.602Z,8.60
2024-03-02T03:12:45.213Z,8.62
2024-03-02T03:13:50.558Z,8.66
2024-03-02T03:14:54.760Z,8.60
2024-03-02T03:15:58.876Z,8.60
2024-03-02T03:17:04.539Z,8.61
2024-03-02T03:18:09.434Z,8.61
2024-03-02T03:19:12.720Z,8.57
2024-03-02T03:20:17.029Z,8.50
2024-03-02T03:21:20.975Z,8.53
2024-03-02T03:22:25.400Z,8.56
2024-03-02T03:23:31.552Z,8.62
2024-03-02T03:24:34.798Z,8.58
2024-03-02T03:25:38.310Z,8.60
2024-03-02T03:26:41.370Z,8.58
2024-03-02T03:27:44.768Z,8.56
2024-03-02T03:28:49.458Z,8.58
2024-03-02T03:29:53.650Z,8.64
2024-03-02T03:30:57.684Z,8.66
2024-03-02T03:32:00.998Z,8.64
2024-03-02T03:33:04.643Z,8.64
2024-03-02T03:34:15.453Z,8.67
2024-03-02T03:35:20.536Z,8.68
2024-03-02T03:36:24.729Z,8.73
2024-03-02T03:37:35.825Z,8.73
2024-03-02T03:38:40.605Z,8.78
2024-03-02T03:39:44.258Z,8.78
2024-03-02T03:40:47.442Z,8.73
2024-03-02T03:41:50.796Z,8.73
2024-03-02T03:42:59.773Z,8.70
2024-03-02T03:44:05.956Z,8.72
2024-03-02T03:45:09.703Z,8.69
2024-03-02T03:46:13.499Z,8.71
2024-03-02T03:47:16.926Z,8.71
2024-03-02T03:48:25.480Z,8.68
2024-03-02T03:49:28.614Z,8.70
2024-03-02T03:50:36.060Z,8.78
2024-03-02T03:51:39.756Z,8.76
2024-03-02T03:52:42.987Z,8.70
2024-03-02T03:53:46.885Z,8.75
2024-03-02T03:54:51.504Z,8.68
2024-03-02T03:55:58.673Z,8.71
2024-03-02T03:57:02.623Z,8.70
2024-03-02T03:58:06.757Z,8.73
2024-03-02T03:59:11.515Z,8.75
2024-03-02T04:00:16.998Z,8.73
2024-03-02T04:01:25.586Z,8.77
2024-03-02T04:02:29.025Z,8.82
2024-03-02T04:03:35.269Z,8.82
2024-03-02T04:04:39.264Z,8.86
2024-03-02T04:05:45.518Z,8.81
2024-03-02T04:06:48.928Z,8.76
2024-03-02T04:07:52.823Z,8.75
2024-03-02T04:08:59.908Z,8.73
2024-03-02T04:10:05.695Z,8.74
2024-03-02T04:11:09.414Z,8.78
2024-03-02T04:12:16.527Z,8.82
2024-03-02T04:13:20.035Z,8.85
2024-03-02T04:14:24.936Z,8.82
2024-03-02T04:15:28.629Z,8.83
2024-03-02T04:16:31.696Z,8.83
2024-03-02T04:17:37.863Z,8.86
2024-03-02T04:18:41.103Z,8.87
2024-03-02T04:19:45.663Z,8.87
2024-03-02T04:20:50.392Z,8.93
2024-03-02T04:21:55.127Z,8.88
2024-03-02T04:23:01.007Z,8.91
2024-03-02T04:24:04.570Z,8.87
2024-03-02T04:25:11.612Z,8.90
2024-03-02T04:26:16.181Z,8.94
2024-03-02T04:27:20.075Z,8.93
2024-03-02T04:28:23.600Z,8.96
2024-03-02T04:29:27.207Z,8.97
2024-03-02T04:30:33.615Z,9.01
2024-03-02T04:31:37.489Z,9.02
2024-03-02T04:32:47.273Z,9.05
2024-03-02T04:33:51.030Z,9.08
2024-03-02T04:34:55.885Z,9.10
2024-03-02T04:35:59.620Z,9.13
2024-03-02T04:37:02.874Z,9.17
2024-03-02T04:38:06.100Z,9.17
2024-03-02T04:39:11.116Z,9.17
2024-03-02T04:40:16.702Z,9.13
2024-03-02T04:41:20.585Z,9.10
2024-03-02T04:42:27.316Z,9.08
2024-03-02T04:43:30.814Z,9.05
2024-03-02T04:44:34.210Z,9.03
2024-03-02T04:45:40.007Z,9.03
2024-03-02T04:46:43.301Z,9.07
2024-03-02T04:47:49.376Z,9.10
2024-03-02T04:48:57.158Z,9.09
2024-03-02T04:50:02.527Z,9.07
2024-03-02T04:51:05.631Z,9.05
2024-03-02T04:52:08.932Z,9.08
2024-03-02T04:53:12.361Z,9.11
2024-03-02T04:54:16.495Z,9.13
2024-03-02T04:55:28.623Z,9.15
2024-03-02T04:56:33.614Z,9.11
2024-03-02T04:57:37.361Z,9.10
2024-03-02T04:58:41.074Z,9.09
2024-03-02T04:59:47.567Z,9.11
2024-03-02T05:00:51.695Z,9.11
2024-03-02T05:01:54.891Z,9.11
2024-03-02T05:03:00.380Z,9.11
2024-03-02T05:04:04.074Z,9.11
2024-03-02T05:05:07.770Z,9.09
2024-03-02T05:06:11.153Z,9.10
2024-03-02T05:07:14.991Z,9.06
2024-03-02T05:08:20.955Z,9.09
2024-03-02T05:09:24.336Z,9.10
2024-03-02T05:10:28.517Z,9.11
2024-03-02T05:12:10.136Z,9.07
2024-03-02T05:13:16.610Z,9.12
2024-03-02T05:14:20.004Z,9.14
2024-03-02T05:15:28.062Z,9.19
2024-03-02T05:16:38.031Z,9.21
2024-03-02T05:17:46.588Z,9.18
2024-03-02T05:18:49.931Z,9.21
2024-03-02T05:19:53.082Z,9.19
2024-03-02T05:20:56.436Z,9.16
2024-03-02T05:21:59.613Z,9.18
2024-03-02T05:23:04.893Z,9.20
2024-03-02T05:24:08.261Z,9.23
2024-03-02T05:25:12.319Z,9.23
2024-03-02T05:26:20.189Z,9.17
2024-03-02T05:27:23.840Z,9.11
2024-03-02T05:28:27.100Z,9.08
2024-03-02T05:29:30.631Z,9.00
2024-03-02T05:30:34.006Z,8.94
2024-03-02T05:31:37.502Z,8.90
2024-03-02T05:32:40.699Z,8.90
2024-03-02T05:33:47.699Z,8.91
2024-03-02T05:34:52.005Z,8.91
2024-03-02T05:35:55.658Z,8.91
2024-03-02T05:37:00.722Z,8.96
2024-03-02T05:38:05.877Z,8.92
2024-03-02T05:39:10.281Z,8.94
2024-03-02T05:40:17.576Z,8.93
2024-03-02T05:41:22.218Z,8.95
2024-03-02T05:42:25.662Z,8.92
2024-03-02T05:43:29.849Z,8.85
2024-03-02T05:44:33.515Z,8.87
2024-03-02T05:45:37.004Z,8.85
2024-03-02T05:46:41.481Z,8.78
2024-03-02T05:47:49.888Z,8.72
2024-03-02T05:48:53.346Z,8.82
2024-03-02T05:49:56.470Z,8.83
2024-03-02T05:50:59.567Z,8.83
2024-03-02T05:52:04.658Z,8.88
2024-03-02T05:53:09.909Z,8.87
2024-03-02T05:54:15.636Z,8.86
2024-03-02T05:55:19.541Z,8.87
2024-03-02T05:56:22.629Z,8.85
2024-03-02T05:57:46.178Z,8.82
2024-03-02T05:58:51.820Z,8.80
2024-03-02T05:59:55.530Z,8.79
2024-03-02T06:00:59.865Z,8.81
2024-03-02T06:02:04.182Z,8.82
2024-03-02T06:03:07.469Z,8.82
2024-03-02T06:04:12.474Z,8.85
2024-03-02T06:05:17.251Z,8.85
2024-03-02T06:06:20.893Z,8.88
2024-03-02T06:07:24.371Z,8.94
2024-03-02T06:08:30.469Z,8.96
2024-03-02T06:09:33.859Z,8.99
2024-03-02T06:10:37.700Z,9.03
2024-03-02T06:11:43.495Z,9.05
2024-03-02T06:12:47.868Z,9.02
2024-03-02T06:13:51.065Z,9.05
2024-03-02T06:14:54.227Z,9.06
2024-03-02T06:15:58.223Z,9.07
2024-03-02T06:17:04.636Z,9.09
2024-03-02T06:18:09.178Z,9.10
2024-03-02T06:19:13.663Z,9.08
2024-03-02T06:20:17.074Z,9.11
2024-03-02T06:21:20.267Z,9.08
2024-03-02T06:22:26.221Z,9.11
2024-03-02T06:23:34.710Z,9.09
2024-03-02T06:24:41.784Z,9.06
2024-03-02T06:25:44.993Z,8.98
2024-03-02T06:26:48.320Z,8.93
2024-03-02T06:27:51.531Z,8.86
2024-03-02T06:28:55.016Z,8.81
2024-03-02T06:30:50.891Z,8.80
2024-03-02T06:31:55.292Z,8.85
2024-03-02T06:33:05.206Z,8.89
2024-03-02T06:34:09.930Z,8.89
2024-03-02T06:35:13.871Z,8.92
2024-03-02T06:36:18.529Z,8.91
2024-03-02T06:37:22.033Z,8.93
2024-03-02T06:38:30.170Z,8.96
2024-03-02T06:39:35.421Z,8.97
2024-03-02T06:40:42.034Z,8.98
2024-03-02T06:41:57.508Z,8.99
2024-03-02T06:43:00.851Z,8.99
2024-03-02T06:44:03.952Z,9.01
2024-03-02T06:45:08.705Z,8.98
2024-03-02T06:46:16.424Z,8.95
2024-03-02T06:47:21.677Z,8.97
2024-03-02T06:48:26.002Z,8.91
2024-03-02T06:49:31.844Z,8.94
2024-03-02T06:50:35.263Z,8.96
2024-03-02T06:51:38.433Z,8.96
2024-03-02T06:52:41.787Z,8.95
2024-03-02T06:53:45.027Z,8.94
2024-03-02T06:54:48.209Z,8.95
2024-03-02T06:55:51.366Z,8.98
2024-03-02T06:56:55.061Z,9.00
2024-03-02T06:58:01.639Z,8.99
2024-03-02T06:59:05.579Z,9.05
2024-03-02T07:00:11.785Z,9.06
2024-03-02T07:01:17.110Z,9.12
2024-03-02T07:02:21.293Z,9.12
2024-03-02T07:03:25.750Z,9.18
2024-03-02T07:04:29.032Z,9.16
2024-03-02T07:05:33.458Z,9.15
2024-03-02T07:06:38.538Z,9.16
2024-03-02T07:07:41.902Z,9.18
2024-03-02T07:08:46.807Z,9.22
2024-03-02T07:09:50.150Z,9.22
2024-03-02T07:10:53.590Z,9.28
2024-03-02T07:11:56.866Z,9.33
2024-03-02T07:13:03.759Z,9.36
2024-03-02T07:14:07.637Z,9.39
2024-03-02T07:15:23.006Z,9.43
2024-03-02T07:16:31.868Z,9.50
2024-03-02T07:17:35.436Z,9.59
2024-03-02T07:18:43.524Z,9.63
2024-03-02T07:19:48.971Z,9.70
2024-03-02T07:20:53.063Z,9.75
2024-03-02T07:21:56.346Z,9.84
2024-03-02T07:22:59.528Z,9.90
2024-03-02T07:24:11.256Z,9.96
2024-03-02T07:27:29.453Z,10.17
2024-03-02T07:28:58.027Z,10.19
2024-03-02T07:30:01.394Z,10.30
2024-03-02T07:31:06.311Z,10.35
2024-03-02T07:32:11.752Z,10.40
2024-03-02T07:33:17.548Z,10.45
2024-03-02T07:34:20.685Z,10.51
2024-03-02T07:35:27.910Z,10.51
2024-03-02T07:36:38.160Z,10.53
2024-03-02T07:37:50.166Z,10.53
2024-03-02T07:38:53.372Z,10.67
2024-03-02T07:39:59.671Z,10.74
2024-03-02T07:41:05.877Z,10.81
2024-03-02T07:42:09.604Z,10.85
2024-03-02T07:43:13.931Z,10.78
2024-03-02T07:44:17.920Z,10.74
2024-03-02T07:45:21.304Z,10.70
2024-03-02T07:46:25.666Z,10.70
2024-03-02T07:47:29.997Z,10.67
2024-03-02T07:48:36.140Z,10.64
2024-03-02T07:49:39.838Z,10.70
2024-03-02T07:50:44.365Z,10.67
2024-03-02T07:51:47.741Z,10.64
2024-03-02T07:52:51.384Z,10.67
2024-03-02T07:53:54.809Z,10.70
2024-03-02T07:54:58.625Z,10.68
2024-03-02T07:56:04.071Z,10.78
2024-03-02T07:57:07.262Z,10.79
2024-03-02T07:58:12.858Z,10.79
2024-03-02T07:59:15.937Z,10.82
2024-03-02T08:00:19.520Z,10.82
2024-03-02T08:01:22.993Z,10.86
2024-03-02T08:02:26.446Z,10.94
2024-03-02T08:03:32.093Z,10.97
2024-03-02T08:04:38.678Z,11.04
2024-03-02T08:05:42.130Z,11.05
2024-03-02T08:06:46.992Z,11.07
2024-03-02T08:07:54.015Z,11.05
2024-03-02T08:09:02.416Z,11.06
2024-03-02T08:10:10.045Z,11.09
2024-03-02T08:11:19.421Z,11.12
2024-03-02T08:12:24.901Z,11.07
2024-03-02T08:13:28.064Z,11.04
2024-03-02T08:14:33.067Z,11.02
2024-03-02T08:15:36.205Z,11.02
2024-03-02T08:16:39.875Z,10.98
2024-03-02T08:17:50.071Z,10.96
2024-03-02T08:18:59.389Z,10.98
2024-03-02T08:20:04.392Z,10.89
2024-03-02T08:21:10.103Z,10.95
2024-03-02T08:22:14.835Z,10.93
2024-03-02T08:23:18.762Z,10.90
2024-03-02T08:24:21.880Z,10.90
2024-03-02T08:25:25.680Z,10.94
2024-03-02T08:26:33.238Z,10.94
2024-03-02T08:27:41.225Z,10.86
2024-03-02T08:28:44.517Z,10.80
2024-03-02T08:29:47.926Z,10.85
2024-03-02T08:30:52.609Z,10.79
2024-03-02T08:31:57.521Z,10.77
2024-03-02T08:33:02.061Z,10.76
2024-03-02T08:34:05.660Z,10.75
2024-03-02T08:35:09.159Z,10.82
2024-03-02T08:36:14.295Z,10.87
2024-03-02T08:37:18.581Z,10.88
2024-03-02T08:38:22.681Z,10.90
2024-03-02T08:39:26.765Z,10.95
2024-03-02T08:40:31.741Z,10.95
2024-03-02T08:41:38.978Z,10.93
2024-03-02T08:42:42.761Z,10.94
2024-03-02T08:43:45.949Z,10.98
2024-03-02T08:44:49.464Z,10.95
2024-03-02T08:45:52.599Z,10.97
2024-03-02T08:46:58.805Z,10.96
2024-03-02T08:48:02.333Z,11.02
2024-03-02T08:49:08.981Z,11.01
2024-03-02T08:50:12.450Z,11.05
2024-03-02T08:51:17.975Z,11.05
2024-03-02T08:52:21.538Z,11.08
2024-03-02T08:53:24.671Z,11.14
2024-03-02T08:54:27.878Z,11.13
2024-03-02T08:55:33.459Z,11.10
2024-03-02T08:56:39.775Z,11.15
2024-03-02T08:57:43.837Z,11.17
2024-03-02T08:58:47.105Z,11.23
2024-03-02T08:59:51.753Z,11.31
2024-03-02T09:00:54.982Z,11.29
2024-03-02T09:02:02.723Z,11.26
2024-03-02T09:03:06.837Z,11.32
2024-03-02T09:04:14.032Z,11.28
2024-03-02T09:05:17.821Z,11.24
2024-03-02T09:06:22.990Z,11.24
2024-03-02T09:07:27.578Z,11.17
2024-03-02T09:08:31.361Z,11.13
2024-03-02T09:09:34.699Z,11.09
2024-03-02T09:10:40.612Z,10.98
2024-03-02T09:11:44.368Z,10.96
2024-03-02T09:12:47.827Z,10.99
2024-03-02T09:13:52.773Z,10.92
2024-03-02T09:14:56.237Z,10.94
2024-03-02T09:15:59.576Z,10.90
2024-03-02T09:17:03.762Z,10.89
2024-03-02T09:18:10.934Z,10.85
2024-03-02T09:19:14.519Z,10.92
2024-03-02T09:20:18.797Z,10.97
2024-03-02T09:21:23.114Z,10.97
2024-03-02T09:22:28.085Z,10.84
2024-03-02T09:23:31.256Z,10.79
2024-03-02T09:24:37.698Z,10.69
2024-03-02T09:25:41.666Z,10.71
2024-03-02T09:26:47.862Z,10.71
2024-03-02T09:27:51.264Z,10.70
2024-03-02T09:28:54.694Z,10.63
2024-03-02T09:29:58.055Z,10.64
2024-03-02T09:31:26.357Z,10.53
2024-03-02T09:32:32.102Z,10.50
2024-03-02T09:33:36.602Z,10.50
2024-03-02T09:34:41.952Z,10.48
2024-03-02T09:35:54.290Z,10.50
2024-03-02T09:36:58.476Z,10.52
2024-03-02T09:38:01.828Z,10.55
2024-03-02T09:39:05.531Z,10.62
2024-03-02T09:40:10.440Z,10.69
2024-03-02T09:41:15.944Z,10.77
2024-03-02T09:42:19.950Z,10.74
2024-03-02T09:43:26.043Z,10.85
2024-03-02T09:44:31.228Z,10.85
2024-03-02T09:45:35.697Z,10.84
2024-03-02T09:46:41.015Z,10.81
2024-03-02T09:47:48.916Z,10.76
2024-03-02T09:48:52.405Z,10.75
2024-03-02T09:49:57.258Z,10.76
2024-03-02T09:51:05.088Z,10.83
2024-03-02T09:52:10.069Z,10.88
2024-03-02T09:53:16.746Z,10.85
2024-03-02T09:54:22.957Z,10.86
2024-03-02T09:55:26.955Z,10.95
2024-03-02T09:56:31.187Z,10.98
2024-03-02T09:57:34.468Z,10.97
2024-03-02T09:58:40.506Z,11.02
2024-03-02T09:59:43.772Z,11.01
2024-03-02T10:00:46.976Z,10.99
2024-03-02T10:02:04.274Z,11.07
2024-03-02T10:03:15.731Z,11.04
2024-03-02T10:04:22.518Z,11.09
2024-03-02T10:05:30.115Z,11.15
2024-03-02T10:06:37.606Z,11.29
2024-03-02T10:08:05.208Z,11.28
2024-03-02T10:09:09.464Z,11.28
2024-03-02T10:10:17.169Z,11.34
2024-03-02T10:11:32.153Z,11.41
2024-03-02T10:12:35.572Z,11.52
2024-03-02T10:13:39.544Z,11.55
2024-03-02T10:14:44.079Z,11.60
2024-03-02T10:15:48.071Z,11.66
2024-03-02T10:16:51.267Z,11.67
2024-03-02T10:17:54.817Z,11.63
2024-03-02T10:18:59.262Z,11.74
2024-03-02T10:20:26.442Z,11.74
2024-03-02T10:21:30.603Z,11.80
2024-03-02T10:22:34.544Z,11.87
2024-03-02T10:23:38.170Z,11.80
2024-03-02T10:24:46.511Z,11.80
2024-03-02T10:25:55.270Z,11.80
2024-03-02T10:27:01.547Z,11.81
2024-03-02T10:28:07.616Z,11.80
2024-03-02T10:29:13.318Z,11.67
2024-03-02T10:30:18.202Z,11.67
2024-03-02T10:31:28.323Z,11.73
2024-03-02T10:32:31.981Z,11.69
2024-03-02T10:33:35.366Z,11.66
2024-03-02T10:34:41.369Z,11.72
2024-03-02T10:35:50.779Z,11.78
2024-03-02T10:36:56.163Z,11.77
2024-03-02T10:38:01.825Z,11.72
2024-03-02T10:39:06.247Z,11.72
2024-03-02T10:40:16.921Z,11.79
2024-03-02T10:41:20.195Z,11.73
2024-03-02T10:42:24.728Z,11.81
2024-03-02T10:43:28.666Z,11.76
2024-03-02T10:44:35.580Z,11.89
2024-03-02T10:45:40.356Z,11.87
2024-03-02T10:46:46.941Z,11.91
2024-03-02T10:47:51.390Z,11.86
2024-03-02T10:48:54.678Z,11.90
2024-03-02T10:50:00.577Z,11.89
2024-03-02T10:51:03.946Z,11.78
2024-03-02T10:52:07.407Z,11.88
2024-03-02T10:53:13.511Z,11.81
2024-03-02T10:54:20.414Z,11.81
2024-03-02T10:55:24.174Z,11.81
2024-03-02T10:56:30.885Z,11.77
2024-03-02T10:57:55.298Z,11.72
2024-03-02T10:59:27.623Z,11.76
2024-03-02T11:00:38.470Z,11.83
2024-03-02T11:01:45.001Z,11.87
2024-03-02T11:02:53.517Z,11.88
2024-03-02T11:04:04.015Z,11.89
2024-03-02T11:05:12.330Z,11.88
2024-03-02T11:06:15.667Z,11.89
2024-03-02T11:07:24.991Z,11.90
2024-03-02T11:08:30.673Z,11.95
2024-03-02T11:09:46.305Z,11.99
2024-03-02T11:10:59.925Z,12.03
2024-03-02T11:12:45.701Z,12.04
2024-03-02T11:13:51.956Z,12.07
2024-03-02T11:14:57.537Z,12.00
2024-03-02T11:16:13.494Z,12.08
2024-03-02T11:17:21.762Z,12.09
2024-03-02T11:18:27.254Z,12.15
2024-03-02T11:19:33.839Z,12.17
2024-03-02T11:20:51.408Z,12.30
2024-03-02T11:21:55.560Z,12.27
2024-03-02T11:22:58.782Z,12.27
2024-03-02T11:24:03.711Z,12.31
2024-03-02T11:25:28.968Z,12.41
2024-03-02T11:26:42.408Z,12.24
2024-03-02T11:27:54.829Z,12.25
2024-03-02T11:28:59.768Z,12.11
2024-03-02T11:30:08.382Z,12.13
2024-03-02T11:31:16.719Z,12.20
2024-03-02T11:32:25.077Z,12.24
2024-03-02T11:33:30.983Z,12.29
2024-03-02T11:34:40.664Z,12.32
2024-03-02T11:35:48.852Z,12.30
2024-03-02T11:36:52.925Z,12.39
2024-03-02T11:37:56.552Z,12.49
2024-03-02T11:39:00.757Z,12.48
2024-03-02T11:40:04.476Z,12.49
2024-03-02T11:41:10.813Z,12.41
2024-03-02T11:42:16.009Z,12.40
2024-03-02T11:43:21.804Z,12.37
2024-03-02T11:44:31.042Z,12.45
2024-03-02T11:45:35.147Z,12.50
2024-03-02T11:46:41.544Z,12.47
2024-03-02T11:48:14.896Z,12.22
2024-03-02T11:49:44.457Z,12.30
2024-03-02T11:50:52.802Z,12.44
2024-03-02T11:52:03.544Z,12.47
2024-03-02T11:53:12.020Z,12.45
2024-03-02T11:54:16.294Z,12.46
2024-03-02T11:55:24.286Z,12.44
2024-03-02T11:56:32.896Z,12.46
2024-03-02T11:57:43.111Z,12.48
2024-03-02T11:59:11.200Z,12.58
2024-03-02T12:00:21.734Z,12.51
2024-03-02T12:01:25.659Z,12.59
2024-03-02T12:02:29.075Z,12.70
2024-03-02T12:03:37.496Z,12.78
2024-03-02T12:04:43.476Z,12.74
2024-03-02T12:05:53.650Z,12.76
2024-03-02T12:07:01.847Z,12.86
2024-03-02T12:08:07.747Z,12.84
2024-03-02T12:09:16.093Z,12.86
2024-03-02T12:10:20.277Z,12.87
2024-03-02T12:11:23.638Z,12.92
2024-03-02T12:12:31.016Z,12.99
2024-03-02T12:13:36.298Z,13.06
2024-03-02T12:14:42.475Z,12.97
2024-03-02T12:15:46.058Z,13.01
2024-03-02T12:16:50.534Z,13.01
2024-03-02T12:18:12.573Z,13.03
2024-03-02T12:19:19.118Z,13.02
2024-03-02T12:20:22.533Z,13.03
2024-03-02T12:21:25.700Z,12.79
2024-03-02T12:22:32.827Z,12.82
2024-03-02T12:23:36.800Z,12.94
2024-03-02T12:24:40.805Z,12.88
2024-03-02T12:25:44.646Z,13.01
2024-03-02T12:26:52.684Z,13.03
2024-03-02T12:28:00.331Z,13.07
2024-03-02T12:29:03.912Z,13.01
2024-03-02T12:30:12.176Z,13.01
2024-03-02T12:31:16.589Z,12.90
2024-03-02T12:32:20.969Z,12.99
2024-03-02T12:33:28.947Z,12.81
2024-03-02T12:34:33.040Z,12.77
2024-03-02T12:35:38.603Z,12.71
2024-03-02T12:36:43.112Z,12.70
2024-03-02T12:37:48.221Z,12.74
2024-03-02T12:38:54.805Z,12.78
2024-03-02T12:39:58.221Z,12.78
2024-03-02T12:41:01.491Z,12.76
2024-03-02T12:42:04.659Z,12.73
2024-03-02T12:43:10.943Z,12.76
2024-03-02T12:44:14.635Z,12.82
2024-03-02T12:45:25.942Z,12.91
2024-03-02T12:46:29.659Z,12.80
2024-03-02T12:47:33.719Z,12.80
2024-03-02T12:48:37.599Z,12.77
2024-03-02T12:49:44.584Z,12.82
2024-03-02T12:50:48.053Z,12.73
2024-03-02T12:51:55.063Z,12.72
2024-03-02T12:52:58.978Z,12.74
2024-03-02T12:54:06.604Z,12.70
2024-03-02T12:55:13.644Z,12.81
2024-03-02T12:56:22.668Z,12.72
2024-03-02T12:57:29.374Z,12.70
2024-03-02T12:58:41.720Z,12.76
2024-03-02T12:59:47.996Z,12.77
2024-03-02T13:00:51.264Z,12.72
2024-03-02T13:01:55.688Z,12.71
2024-03-02T13:03:03.745Z,12.64
2024-03-02T13:04:11.623Z,12.58
2024-03-02T13:05:14.973Z,12.48
2024-03-02T13:06:21.392Z,12.59
2024-03-02T13:07:32.178Z,12.62
2024-03-02T13:08:36.492Z,12.53
2024-03-02T13:09:42.701Z,12.43
2024-03-02T13:10:46.826Z,12.47
2024-03-02T13:11:50.621Z,12.48
2024-03-02T13:12:57.861Z,12.39
2024-03-02T13:14:02.409Z,12.37
2024-03-02T13:15:07.162Z,12.43
2024-03-02T13:16:14.181Z,12.50
2024-03-02T13:17:24.400Z,12.56
2024-03-02T13:18:29.534Z,12.62
2024-03-02T13:19:32.991Z,12.61
2024-03-02T13:20:36.877Z,12.61
2024-03-02T13:21:41.273Z,12.63
2024-03-02T13:22:44.799Z,12.65
2024-03-02T13:23:48.532Z,12.73
2024-03-02T13:24:53.438Z,12.72
2024-03-02T13:25:56.800Z,12.74
2024-03-02T13:27:01.165Z,12.80
2024-03-02T13:28:06.199Z,12.80
2024-03-02T13:29:09.467Z,12.90
2024-03-02T13:30:12.757Z,12.93
2024-03-02T13:31:16.580Z,12.92
2024-03-02T13:32:24.989Z,12.89
2024-03-02T13:33:28.604Z,12.89
2024-03-02T13:34:34.889Z,12.93
2024-03-02T13:35:38.262Z,12.96
2024-03-02T13:36:41.821Z,12.93
2024-03-02T13:37:45.444Z,12.89
2024-03-02T13:38:48.931Z,12.84
2024-03-02T13:39:53.887Z,12.81
2024-03-02T13:41:02.349Z,12.86
2024-03-02T13:42:12.501Z,12.87
2024-03-02T13:43:18.064Z,12.82
2024-03-02T13:44:23.108Z,12.90
2024-03-02T13:45:26.474Z,12.91
2024-03-02T13:46:30.045Z,13.01
2024-03-02T13:47:34.373Z,12.92
2024-03-02T13:48:37.879Z,12.98
2024-03-02T13:49:45.060Z,13.00
2024-03-02T13:50:48.449Z,12.96
2024-03-02T13:51:51.578Z,12.99
2024-03-02T13:52:54.803Z,12.86
2024-03-02T13:53:58.165Z,12.94
2024-03-02T13:55:01.470Z,12.86
2024-03-02T13:56:08.404Z,12.88
2024-03-02T13:57:17.598Z,12.79
2024-03-02T13:58:22.171Z,12.78
2024-03-02T13:59:28.619Z,12.80
2024-03-02T14:00:32.642Z,12.81
2024-03-02T14:01:36.322Z,12.82
2024-03-02T14:02:40.638Z,12.78
2024-03-02T14:03:48.657Z,12.79
2024-03-02T14:04:52.632Z,12.70
2024-03-02T14:05:57.257Z,12.76
2024-03-02T14:07:03.149Z,12.78
2024-03-02T14:08:12.285Z,12.80
2024-03-02T14:09:16.073Z,12.84
2024-03-02T14:10:23.586Z,12.82
2024-03-02T14:11:27.234Z,12.79
2024-03-02T14:12:30.492Z,12.69
2024-03-02T14:13:36.574Z,12.74
2024-03-02T14:14:42.569Z,12.74
2024-03-02T14:15:47.251Z,12.73
2024-03-02T14:16:51.782Z,12.70
2024-03-02T14:17:55.526Z,12.81
2024-03-02T14:19:00.685Z,12.75
2024-03-02T14:20:06.246Z,12.71
2024-03-02T14:21:11.940Z,12.77
2024-03-02T14:22:18.961Z,12.67
2024-03-02T14:23:22.749Z,12.71
2024-03-02T14:24:27.304Z,12.71